Time;durP1;ratioP1;P1;durP2;ratioP2;P2;SDS_P1;SDS_P2;PMS_P1;PMS_P2;Temp;Humidity;BMP_temperature;BMP_pressure;BME280_temperature;BME280_humidity;BME280_pressure;Samples;Min_cycle;Max_cycle;Signal;HPM_P1;HPM_P2
2022/04/10 00:02:16;;;;;;;7.27;4.70;;;;;;;;;;5021804;28;20222;-65
2022/04/10 00:04:43;;;;;;;5.33;3.90;;;;;;;;;;5018295;28;20258;-64
2022/04/10 00:07:11;;;;;;;8.00;5.27;;;;;;;;;;5020850;28;20203;-65
2022/04/10 00:09:39;;;;;;;7.90;4.63;;;;;;;;;;5019690;28;20227;-63
2022/04/10 00:12:07;;;;;;;5.60;4.90;;;;;;;;;;5016168;28;20676;-64
2022/04/10 00:14:34;;;;;;;7.50;5.83;;;;;;;;;;5023321;28;20617;-63
2022/04/10 00:17:02;;;;;;;7.53;5.20;;;;;;;;;;5022129;28;20215;-64
2022/04/10 00:19:29;;;;;;;8.90;6.93;;;;;;;;;;5011089;28;20233;-65
2022/04/10 00:21:58;;;;;;;5.13;4.60;;;;;;;;;;5024877;28;20616;-63
2022/04/10 00:24:25;;;;;;;4.90;4.40;;;;;;;;;;5038719;28;20223;-65
2022/04/10 00:26:53;;;;;;;8.37;6.37;;;;;;;;;;5023724;28;20254;-65
2022/04/10 00:29:21;;;;;;;7.13;6.00;;;;;;;;;;5025493;28;20207;-64
2022/04/10 00:31:49;;;;;;;9.17;8.20;;;;;;;;;;5014124;28;20445;-64
2022/04/10 00:34:16;;;;;;;6.67;5.40;;;;;;;;;;5011181;28;20634;-65
2022/04/10 00:36:44;;;;;;;8.57;5.57;;;;;;;;;;5005897;28;20219;-63
2022/04/10 00:39:11;;;;;;;8.37;5.37;;;;;;;;;;4998975;28;20210;-63
2022/04/10 00:41:39;;;;;;;11.10;9.43;;;;;;;;;;5004805;28;20338;-64
2022/04/10 00:44:08;;;;;;;11.43;9.00;;;;;;;;;;4997469;28;20238;-64
2022/04/10 00:46:37;;;;;;;12.20;8.67;;;;;;;;;;5001312;28;20218;-63
2022/04/10 00:49:05;;;;;;;14.73;12.00;;;;;;;;;;5000594;28;20230;-63
2022/04/10 00:51:44;;;;;;;7.27;6.20;;;;;;;;;;4997318;28;20207;-64
2022/04/10 00:54:13;;;;;;;5.90;5.30;;;;;;;;;;5016608;28;20317;-63
2022/04/10 00:56:41;;;;;;;12.57;7.43;;;;;;;;;;5013978;28;20218;-63
2022/04/10 00:59:09;;;;;;;9.37;7.53;;;;;;;;;;4993211;28;20218;-64
2022/04/10 01:01:37;;;;;;;5.90;5.20;;;;;;;;;;4992291;28;20214;-64
2022/04/10 01:04:25;;;;;;;8.43;5.87;;;;;;;;;;5004854;28;20222;-63
2022/04/10 01:06:53;;;;;;;8.00;5.57;;;;;;;;;;4987605;28;20205;-64
2022/04/10 01:09:21;;;;;;;11.37;7.30;;;;;;;;;;4995878;28;20500;-65
2022/04/10 01:11:49;;;;;;;8.13;5.37;;;;;;;;;;4993805;28;20230;-66
2022/04/10 01:14:16;;;;;;;5.53;4.93;;;;;;;;;;4990323;28;20292;-62
2022/04/10 01:16:43;;;;;;;6.40;5.07;;;;;;;;;;4996719;28;20218;-64
2022/04/10 01:19:13;;;;;;;6.73;5.67;;;;;;;;;;4996623;28;20225;-65
2022/04/10 01:21:46;;;;;;;5.70;4.73;;;;;;;;;;4993220;28;21144;-64
2022/04/10 01:24:14;;;;;;;9.37;5.50;;;;;;;;;;4992641;28;20245;-62
2022/04/10 01:26:42;;;;;;;8.57;5.20;;;;;;;;;;4997429;28;20226;-64
2022/04/10 01:29:14;;;;;;;6.17;5.57;;;;;;;;;;4989916;28;20218;-63
2022/04/10 01:31:43;;;;;;;7.50;4.80;;;;;;;;;;5006226;28;20862;-64
2022/04/10 01:34:14;;;;;;;14.17;8.83;;;;;;;;;;5008826;28;20258;-65
2022/04/10 01:36:44;;;;;;;33.43;22.67;;;;;;;;;;5010689;28;20229;-64
2022/04/10 01:39:14;;;;;;;30.93;16.37;;;;;;;;;;4995705;28;20252;-64
2022/04/10 01:41:43;;;;;;;35.70;16.70;;;;;;;;;;5015433;28;20207;-62
2022/04/10 01:44:11;;;;;;;29.90;13.73;;;;;;;;;;5007805;28;20226;-64
2022/04/10 01:46:38;;;;;;;14.10;8.23;;;;;;;;;;5000008;28;20205;-61
2022/04/10 01:49:06;;;;;;;39.37;18.17;;;;;;;;;;5009140;28;20213;-66
2022/04/10 01:51:34;;;;;;;51.00;21.53;;;;;;;;;;4980114;28;20257;-65
2022/04/10 01:54:01;;;;;;;23.57;11.60;;;;;;;;;;5008835;28;20395;-65
2022/04/10 01:56:29;;;;;;;68.50;27.97;;;;;;;;;;5009208;28;20280;-66
2022/04/10 01:58:56;;;;;;;56.03;26.07;;;;;;;;;;5002960;28;20240;-66
2022/04/10 02:01:24;;;;;;;59.23;29.17;;;;;;;;;;4991738;28;20206;-65
2022/04/10 02:03:52;;;;;;;16.77;10.30;;;;;;;;;;4992788;28;20300;-65
2022/04/10 02:06:19;;;;;;;14.57;11.97;;;;;;;;;;5004113;28;20663;-64
2022/04/10 02:08:47;;;;;;;21.97;13.63;;;;;;;;;;4987774;28;20857;-65
2022/04/10 02:11:14;;;;;;;15.83;9.67;;;;;;;;;;4991809;28;20213;-63
2022/04/10 02:13:42;;;;;;;7.70;6.83;;;;;;;;;;4989882;28;20311;-62
2022/04/10 02:16:13;;;;;;;6.50;4.80;;;;;;;;;;4987209;28;20676;-64
2022/04/10 02:18:41;;;;;;;8.00;5.20;;;;;;;;;;4986953;28;20217;-65
2022/04/10 02:21:11;;;;;;;7.93;6.00;;;;;;;;;;5007903;28;20213;-65
2022/04/10 02:23:39;;;;;;;6.33;5.73;;;;;;;;;;4990774;28;20244;-65
2022/04/10 02:26:06;;;;;;;7.90;6.20;;;;;;;;;;4987198;28;20261;-63
2022/04/10 02:28:34;;;;;;;8.60;6.40;;;;;;;;;;4987741;28;20239;-61
2022/04/10 02:31:01;;;;;;;11.00;9.57;;;;;;;;;;4998177;28;20205;-64
2022/04/10 02:33:29;;;;;;;10.03;7.13;;;;;;;;;;4983596;28;20215;-64
2022/04/10 02:35:57;;;;;;;8.60;6.67;;;;;;;;;;4990877;28;20941;-64
2022/04/10 02:38:24;;;;;;;8.57;6.17;;;;;;;;;;4998983;28;20225;-63
2022/04/10 02:40:51;;;;;;;8.97;6.20;;;;;;;;;;4990577;28;20783;-65
2022/04/10 02:43:20;;;;;;;9.40;5.70;;;;;;;;;;4992392;28;20247;-66
2022/04/10 02:45:47;;;;;;;7.83;6.20;;;;;;;;;;4991450;28;20244;-66
2022/04/10 02:48:14;;;;;;;8.43;5.63;;;;;;;;;;4988210;28;20209;-62
2022/04/10 02:50:42;;;;;;;8.03;6.27;;;;;;;;;;4994431;28;20220;-64
2022/04/10 02:53:09;;;;;;;6.13;5.50;;;;;;;;;;5000534;28;20234;-65
2022/04/10 02:55:36;;;;;;;8.70;5.53;;;;;;;;;;4993612;28;20202;-65
2022/04/10 02:58:04;;;;;;;8.53;5.70;;;;;;;;;;4993534;28;20218;-63
2022/04/10 03:00:31;;;;;;;7.20;5.13;;;;;;;;;;4990529;28;20217;-65
2022/04/10 03:02:59;;;;;;;7.97;5.60;;;;;;;;;;4995059;28;21620;-65
2022/04/10 03:05:26;;;;;;;6.57;5.27;;;;;;;;;;4989773;28;20244;-65
2022/04/10 03:07:55;;;;;;;6.67;5.90;;;;;;;;;;4996151;28;20244;-65
2022/04/10 03:10:23;;;;;;;8.37;5.70;;;;;;;;;;4992605;28;20693;-65
2022/04/10 03:12:50;;;;;;;6.27;5.63;;;;;;;;;;4988541;28;20222;-65
2022/04/10 03:15:17;;;;;;;7.23;5.60;;;;;;;;;;5010369;28;20214;-64
2022/04/10 03:17:45;;;;;;;8.33;7.43;;;;;;;;;;5013338;28;20197;-64
2022/04/10 03:20:12;;;;;;;6.70;6.03;;;;;;;;;;5009845;28;20276;-65
2022/04/10 03:22:40;;;;;;;6.77;6.00;;;;;;;;;;5008868;28;20781;-64
2022/04/10 03:25:08;;;;;;;7.97;5.50;;;;;;;;;;4999497;28;20244;-65
2022/04/10 03:27:35;;;;;;;9.77;6.10;;;;;;;;;;4993232;28;20213;-63
2022/04/10 03:30:04;;;;;;;8.83;6.37;;;;;;;;;;5005506;28;20206;-63
2022/04/10 03:32:33;;;;;;;10.00;6.60;;;;;;;;;;5002266;28;20228;-64
2022/04/10 03:35:01;;;;;;;9.33;6.87;;;;;;;;;;5000066;28;20212;-63
2022/04/10 03:37:28;;;;;;;8.97;6.83;;;;;;;;;;4996961;28;21841;-64
2022/04/10 03:39:55;;;;;;;9.50;7.93;;;;;;;;;;5005930;28;20212;-64
2022/04/10 03:42:23;;;;;;;7.60;6.63;;;;;;;;;;4995082;28;20291;-65
2022/04/10 03:44:50;;;;;;;8.37;7.43;;;;;;;;;;4991701;28;21899;-65
2022/04/10 03:47:18;;;;;;;7.83;6.60;;;;;;;;;;4983154;28;20207;-64
2022/04/10 03:49:45;;;;;;;9.07;6.40;;;;;;;;;;5008739;28;20217;-63
2022/04/10 03:52:12;;;;;;;8.67;7.13;;;;;;;;;;5004331;28;20213;-65
2022/04/10 03:54:40;;;;;;;8.13;7.33;;;;;;;;;;5003953;28;20214;-65
2022/04/10 03:57:07;;;;;;;7.07;6.37;;;;;;;;;;4996215;28;21442;-65
2022/04/10 03:59:34;;;;;;;12.23;7.53;;;;;;;;;;4990930;28;20311;-64
2022/04/10 04:02:02;;;;;;;12.37;7.13;;;;;;;;;;4994034;28;20209;-64
2022/04/10 04:04:30;;;;;;;8.70;6.80;;;;;;;;;;4988728;28;20861;-65
2022/04/10 04:06:58;;;;;;;10.53;6.93;;;;;;;;;;4992316;28;20205;-65
2022/04/10 04:09:26;;;;;;;9.90;6.73;;;;;;;;;;4996567;28;20210;-64
2022/04/10 04:11:53;;;;;;;7.00;6.07;;;;;;;;;;4994369;28;21074;-65
2022/04/10 04:14:21;;;;;;;7.33;6.63;;;;;;;;;;4993234;28;20319;-65
2022/04/10 04:16:49;;;;;;;8.13;7.20;;;;;;;;;;4992341;28;20227;-62
2022/04/10 04:19:16;;;;;;;10.47;8.97;;;;;;;;;;4990953;28;20256;-65
2022/04/10 04:21:44;;;;;;;15.37;10.83;;;;;;;;;;4995309;28;20219;-65
2022/04/10 04:24:11;;;;;;;32.43;17.67;;;;;;;;;;5013521;28;20237;-63
2022/04/10 04:26:38;;;;;;;14.43;9.80;;;;;;;;;;4980730;28;20286;-65
2022/04/10 04:29:07;;;;;;;18.77;11.60;;;;;;;;;;4993743;28;20204;-64
2022/04/10 04:31:34;;;;;;;17.47;10.93;;;;;;;;;;4998394;28;20199;-63
2022/04/10 04:34:02;;;;;;;21.00;11.93;;;;;;;;;;4987557;28;20359;-64
2022/04/10 04:36:31;;;;;;;15.87;10.20;;;;;;;;;;4986668;28;20740;-65
2022/04/10 04:38:58;;;;;;;12.97;9.47;;;;;;;;;;4988810;28;20295;-64
2022/04/10 04:41:25;;;;;;;17.57;11.73;;;;;;;;;;5000369;28;20221;-63
2022/04/10 04:43:52;;;;;;;13.47;9.60;;;;;;;;;;5003088;28;20296;-63
2022/04/10 04:46:20;;;;;;;19.20;11.73;;;;;;;;;;4988980;28;20321;-63
2022/04/10 04:48:47;;;;;;;13.83;9.13;;;;;;;;;;5005781;28;20266;-62
2022/04/10 04:51:15;;;;;;;17.47;11.20;;;;;;;;;;4999415;28;20211;-64
2022/04/10 04:53:42;;;;;;;34.23;16.87;;;;;;;;;;5023006;28;20781;-65
2022/04/10 04:56:10;;;;;;;18.53;11.33;;;;;;;;;;5000976;28;20208;-63
2022/04/10 04:58:37;;;;;;;10.90;8.50;;;;;;;;;;5007846;28;20228;-65
2022/04/10 05:01:05;;;;;;;38.43;19.17;;;;;;;;;;5008190;28;20666;-64
2022/04/10 05:03:32;;;;;;;28.83;14.40;;;;;;;;;;4986237;28;20795;-65
2022/04/10 05:06:00;;;;;;;16.53;10.23;;;;;;;;;;4984556;28;20228;-63
2022/04/10 05:08:27;;;;;;;58.97;27.27;;;;;;;;;;4993805;28;20221;-64
2022/04/10 05:10:55;;;;;;;73.83;29.17;;;;;;;;;;4994554;28;20224;-63
2022/04/10 05:13:22;;;;;;;18.10;11.70;;;;;;;;;;4994916;28;20675;-65
2022/04/10 05:15:50;;;;;;;18.03;11.30;;;;;;;;;;5009859;28;20291;-65
2022/04/10 05:18:19;;;;;;;17.80;10.87;;;;;;;;;;5018387;28;20209;-63
2022/04/10 05:20:47;;;;;;;20.27;13.63;;;;;;;;;;4987087;28;20209;-63
2022/04/10 05:23:18;;;;;;;20.70;13.83;;;;;;;;;;4994419;28;20233;-63
2022/04/10 05:25:45;;;;;;;16.03;11.57;;;;;;;;;;4998854;28;20709;-64
2022/04/10 05:28:14;;;;;;;13.10;10.07;;;;;;;;;;5010258;28;20367;-63
2022/04/10 05:30:42;;;;;;;12.83;10.33;;;;;;;;;;5010763;28;20364;-64
2022/04/10 05:33:10;;;;;;;19.20;12.13;;;;;;;;;;4994874;28;20316;-64
2022/04/10 05:35:38;;;;;;;20.43;13.03;;;;;;;;;;4997300;28;20225;-65
2022/04/10 05:38:06;;;;;;;22.30;13.27;;;;;;;;;;4994120;28;20678;-65
2022/04/10 05:40:33;;;;;;;12.33;9.70;;;;;;;;;;5007994;28;20236;-62
2022/04/10 05:43:02;;;;;;;14.67;9.60;;;;;;;;;;4996539;28;20540;-65
2022/04/10 05:45:29;;;;;;;14.77;10.03;;;;;;;;;;4997051;28;20995;-65
2022/04/10 05:47:56;;;;;;;12.73;8.57;;;;;;;;;;4979922;28;20211;-64
2022/04/10 05:50:24;;;;;;;14.97;9.23;;;;;;;;;;5001797;28;20209;-65
2022/04/10 05:52:51;;;;;;;12.63;8.43;;;;;;;;;;5015912;28;20634;-65
2022/04/10 05:55:19;;;;;;;11.63;8.67;;;;;;;;;;5002410;28;20362;-65
2022/04/10 05:57:47;;;;;;;10.37;8.00;;;;;;;;;;4998714;28;20210;-65
2022/04/10 06:00:23;;;;;;;12.63;8.73;;;;;;;;;;5007578;28;20283;-65
2022/04/10 06:02:51;;;;;;;10.23;8.20;;;;;;;;;;5011195;28;20233;-64
2022/04/10 06:05:19;;;;;;;10.63;8.13;;;;;;;;;;5006137;28;20241;-66
2022/04/10 06:07:47;;;;;;;13.00;8.60;;;;;;;;;;5003205;28;20618;-65
2022/04/10 06:10:15;;;;;;;10.40;7.67;;;;;;;;;;5014112;28;20214;-65
2022/04/10 06:12:42;;;;;;;14.80;8.73;;;;;;;;;;5006748;28;20293;-65
2022/04/10 06:15:10;;;;;;;9.83;7.17;;;;;;;;;;5011880;28;20253;-64
2022/04/10 06:17:37;;;;;;;11.37;7.27;;;;;;;;;;5014846;28;20206;-63
2022/04/10 06:20:05;;;;;;;7.37;6.23;;;;;;;;;;5015661;28;20262;-64
2022/04/10 06:22:33;;;;;;;8.77;6.60;;;;;;;;;;5012074;28;20245;-65
2022/04/10 06:25:00;;;;;;;7.47;6.03;;;;;;;;;;5011370;28;20231;-65
2022/04/10 06:27:27;;;;;;;11.23;6.47;;;;;;;;;;5009224;28;20212;-65
2022/04/10 06:29:55;;;;;;;7.90;6.30;;;;;;;;;;5013315;28;20207;-64
2022/04/10 06:32:22;;;;;;;7.73;6.00;;;;;;;;;;5015151;28;20624;-63
2022/04/10 06:34:50;;;;;;;6.13;5.53;;;;;;;;;;5010941;28;20633;-65
2022/04/10 06:37:17;;;;;;;10.63;5.90;;;;;;;;;;5014076;28;20264;-64
2022/04/10 06:39:44;;;;;;;6.97;5.60;;;;;;;;;;5018059;28;20336;-65
2022/04/10 06:42:12;;;;;;;6.80;6.10;;;;;;;;;;5013756;28;20226;-63
2022/04/10 06:44:41;;;;;;;9.90;5.30;;;;;;;;;;5012556;28;20210;-64
2022/04/10 06:47:09;;;;;;;8.10;6.53;;;;;;;;;;5010338;28;20661;-64
2022/04/10 06:49:36;;;;;;;6.77;5.67;;;;;;;;;;5012023;28;20202;-65
2022/04/10 06:52:04;;;;;;;6.57;5.87;;;;;;;;;;5012252;28;20207;-64
2022/04/10 06:54:31;;;;;;;6.93;4.97;;;;;;;;;;5012253;28;20211;-65
2022/04/10 06:56:59;;;;;;;7.07;5.60;;;;;;;;;;5006045;28;20270;-64
2022/04/10 06:59:26;;;;;;;5.67;5.07;;;;;;;;;;5013247;28;20199;-65
2022/04/10 07:01:54;;;;;;;5.50;5.00;;;;;;;;;;5011432;28;20247;-65
2022/04/10 07:04:21;;;;;;;6.80;5.17;;;;;;;;;;5020174;28;20755;-65
2022/04/10 07:06:50;;;;;;;6.30;5.27;;;;;;;;;;5012383;28;20242;-66
2022/04/10 07:09:18;;;;;;;7.07;4.67;;;;;;;;;;5016534;28;20230;-65
2022/04/10 07:11:46;;;;;;;5.50;4.97;;;;;;;;;;5013543;28;20661;-65
2022/04/10 07:14:14;;;;;;;6.40;4.80;;;;;;;;;;5006574;28;20231;-65
2022/04/10 07:16:44;;;;;;;6.00;4.90;;;;;;;;;;5010207;28;20226;-64
2022/04/10 07:19:11;;;;;;;4.97;4.43;;;;;;;;;;5010854;28;20336;-65
2022/04/10 07:24:26;;;;;;;5.80;5.20;;;;;;;;;;5009379;28;20215;-63
2022/04/10 07:26:54;;;;;;;5.50;4.97;;;;;;;;;;5005733;28;20317;-65
2022/04/10 07:29:22;;;;;;;8.33;6.07;;;;;;;;;;5016051;28;20713;-64
2022/04/10 07:31:49;;;;;;;6.63;5.70;;;;;;;;;;5015277;28;20203;-65
2022/04/10 07:34:16;;;;;;;17.37;11.50;;;;;;;;;;5009510;28;20218;-63
2022/04/10 07:36:44;;;;;;;12.63;7.90;;;;;;;;;;5007507;28;20281;-65
2022/04/10 07:39:12;;;;;;;9.70;6.20;;;;;;;;;;5007669;28;20250;-64
2022/04/10 07:41:39;;;;;;;15.53;10.33;;;;;;;;;;5007548;28;20229;-63
2022/04/10 07:44:06;;;;;;;8.83;5.27;;;;;;;;;;4994732;28;20227;-64
2022/04/10 07:49:19;;;;;;;13.63;7.87;;;;;;;;;;5016745;28;20261;-64
2022/04/10 07:51:47;;;;;;;5.40;4.63;;;;;;;;;;5007203;28;21848;-66
2022/04/10 07:54:14;;;;;;;5.07;4.57;;;;;;;;;;5021574;28;20304;-66
2022/04/10 07:56:43;;;;;;;8.03;6.00;;;;;;;;;;5004611;28;20669;-61
2022/04/10 07:59:11;;;;;;;11.53;6.20;;;;;;;;;;5006376;28;20633;-64
2022/04/10 08:01:38;;;;;;;7.30;4.90;;;;;;;;;;4996283;28;20210;-66
2022/04/10 08:04:06;;;;;;;5.63;5.03;;;;;;;;;;4990492;28;20277;-64
2022/04/10 08:06:33;;;;;;;7.50;5.60;;;;;;;;;;5004867;28;20280;-64
2022/04/10 08:09:01;;;;;;;7.63;5.93;;;;;;;;;;4999613;28;20768;-62
2022/04/10 08:11:28;;;;;;;6.50;5.80;;;;;;;;;;5010159;28;20600;-65
2022/04/10 08:13:56;;;;;;;6.30;4.47;;;;;;;;;;4999386;28;20231;-65
2022/04/10 08:16:23;;;;;;;6.73;5.10;;;;;;;;;;5015331;28;20204;-65
2022/04/10 08:18:52;;;;;;;5.13;4.63;;;;;;;;;;5005298;28;20424;-66
2022/04/10 08:21:20;;;;;;;5.37;4.23;;;;;;;;;;4995814;28;20267;-66
2022/04/10 08:23:47;;;;;;;4.60;4.17;;;;;;;;;;5011128;28;20234;-66
2022/04/10 08:26:15;;;;;;;5.17;4.40;;;;;;;;;;5009518;28;20230;-66
2022/04/10 08:28:42;;;;;;;6.00;4.70;;;;;;;;;;5006629;28;20289;-65
2022/04/10 08:31:10;;;;;;;8.03;5.77;;;;;;;;;;5000790;28;20225;-65
2022/04/10 08:33:37;;;;;;;6.27;4.40;;;;;;;;;;5004488;28;20237;-64
2022/04/10 08:36:05;;;;;;;5.03;3.93;;;;;;;;;;5004352;28;20215;-65
2022/04/10 08:38:32;;;;;;;8.27;4.07;;;;;;;;;;5016389;28;20261;-63
2022/04/10 08:41:01;;;;;;;4.93;3.73;;;;;;;;;;5005177;28;20215;-66
2022/04/10 08:43:29;;;;;;;4.17;3.77;;;;;;;;;;5010416;28;20227;-66
2022/04/10 08:45:57;;;;;;;4.63;3.83;;;;;;;;;;5002191;28;20231;-65
2022/04/10 08:48:28;;;;;;;3.87;3.47;;;;;;;;;;5004941;28;20202;-63
2022/04/10 08:50:57;;;;;;;5.53;3.83;;;;;;;;;;5010184;28;20354;-66
2022/04/10 08:53:25;;;;;;;4.33;3.93;;;;;;;;;;5009627;28;20607;-64
2022/04/10 08:55:54;;;;;;;5.13;3.93;;;;;;;;;;5001424;28;20203;-63
2022/04/10 08:58:22;;;;;;;7.37;3.70;;;;;;;;;;5007258;28;20904;-63
2022/04/10 09:00:58;;;;;;;5.83;3.90;;;;;;;;;;5013140;28;20218;-66
2022/04/10 09:03:28;;;;;;;5.77;4.00;;;;;;;;;;5016528;28;20249;-67
2022/04/10 09:06:06;;;;;;;9.63;8.63;;;;;;;;;;5010895;28;20226;-63
2022/04/10 09:08:33;;;;;;;7.90;7.10;;;;;;;;;;5001084;28;20217;-65
2022/04/10 09:11:08;;;;;;;3.50;3.20;;;;;;;;;;4999251;28;20207;-65
2022/04/10 09:13:38;;;;;;;4.00;3.40;;;;;;;;;;5009536;28;20707;-67
2022/04/10 09:16:10;;;;;;;5.83;3.27;;;;;;;;;;5009450;28;20214;-67
2022/04/10 09:18:48;;;;;;;5.33;3.90;;;;;;;;;;5007246;28;20661;-65
2022/04/10 09:21:16;;;;;;;4.33;3.20;;;;;;;;;;5002956;28;20249;-67
2022/04/10 09:23:52;;;;;;;4.87;3.40;;;;;;;;;;5017268;28;20246;-65
2022/04/10 09:26:19;;;;;;;4.23;3.17;;;;;;;;;;5016141;28;20281;-65
2022/04/10 09:28:48;;;;;;;5.90;4.00;;;;;;;;;;5009742;28;20686;-66
2022/04/10 09:31:25;;;;;;;9.63;6.03;;;;;;;;;;5013398;28;20266;-65
2022/04/10 09:33:52;;;;;;;4.87;3.50;;;;;;;;;;5007253;28;20236;-65
2022/04/10 09:36:33;;;;;;;13.97;9.33;;;;;;;;;;5008421;28;20226;-66
2022/04/10 09:39:01;;;;;;;23.77;12.77;;;;;;;;;;5014680;28;20203;-65
2022/04/10 09:41:28;;;;;;;12.13;7.50;;;;;;;;;;5005660;28;20241;-64
2022/04/10 09:44:00;;;;;;;5.80;4.27;;;;;;;;;;5009758;28;20230;-66
2022/04/10 09:46:29;;;;;;;4.40;3.10;;;;;;;;;;5004555;28;20281;-65
2022/04/10 09:48:57;;;;;;;5.43;4.20;;;;;;;;;;5013811;28;20211;-66
2022/04/10 09:51:30;;;;;;;6.13;2.93;;;;;;;;;;5027036;28;20301;-67
2022/04/10 09:54:02;;;;;;;4.10;3.30;;;;;;;;;;5015591;28;20272;-67
2022/04/10 09:56:30;;;;;;;3.50;3.17;;;;;;;;;;5012444;28;20204;-65
2022/04/10 09:58:59;;;;;;;3.70;2.80;;;;;;;;;;5009868;28;20302;-65
2022/04/10 10:01:27;;;;;;;8.27;2.87;;;;;;;;;;5005023;28;20202;-63
2022/04/10 10:03:57;;;;;;;4.00;3.10;;;;;;;;;;5007062;28;20265;-65
2022/04/10 10:06:25;;;;;;;2.87;2.63;;;;;;;;;;5000044;28;20689;-66
2022/04/10 10:08:55;;;;;;;5.67;3.30;;;;;;;;;;5003303;28;20257;-63
2022/04/10 10:11:22;;;;;;;4.77;3.67;;;;;;;;;;5000079;28;20204;-64
2022/04/10 10:13:51;;;;;;;3.07;2.70;;;;;;;;;;5005538;28;20615;-66
2022/04/10 10:16:18;;;;;;;4.80;2.90;;;;;;;;;;5006906;28;20214;-65
2022/04/10 10:18:46;;;;;;;6.10;4.03;;;;;;;;;;5014194;28;20209;-65
2022/04/10 10:21:14;;;;;;;4.10;2.87;;;;;;;;;;5013551;28;20211;-65
2022/04/10 10:23:47;;;;;;;3.77;2.80;;;;;;;;;;5006673;28;20237;-64
2022/04/10 10:26:29;;;;;;;5.63;2.93;;;;;;;;;;5001918;28;20729;-67
2022/04/10 10:29:00;;;;;;;3.70;3.23;;;;;;;;;;5010172;28;20199;-65
2022/04/10 10:31:42;;;;;;;4.47;2.97;;;;;;;;;;5013028;28;20211;-66
2022/04/10 10:34:11;;;;;;;3.33;2.90;;;;;;;;;;5026322;28;21222;-65
2022/04/10 10:36:38;;;;;;;3.00;2.70;;;;;;;;;;5005409;28;20215;-64
2022/04/10 10:39:06;;;;;;;5.40;3.47;;;;;;;;;;5012695;28;20574;-65
2022/04/10 10:41:35;;;;;;;3.80;3.20;;;;;;;;;;5000815;28;20858;-64
2022/04/10 10:44:35;;;;;;;4.87;3.00;;;;;;;;;;5011403;28;20247;-65
2022/04/10 10:47:03;;;;;;;3.67;3.07;;;;;;;;;;4970250;28;20246;-64
2022/04/10 10:49:44;;;;;;;3.30;2.90;;;;;;;;;;5009941;28;20604;-64
2022/04/10 10:52:13;;;;;;;3.80;2.87;;;;;;;;;;5009234;28;20242;-65
2022/04/10 10:54:51;;;;;;;4.73;2.93;;;;;;;;;;4999724;28;20262;-63
2022/04/10 10:57:22;;;;;;;4.47;3.30;;;;;;;;;;5000047;28;20210;-64
2022/04/10 11:00:06;;;;;;;4.10;3.67;;;;;;;;;;5008035;28;20208;-63
2022/04/10 11:02:38;;;;;;;4.80;4.20;;;;;;;;;;4999287;28;20238;-65
2022/04/10 11:05:25;;;;;;;3.30;3.00;;;;;;;;;;5011837;28;20259;-65
2022/04/10 11:07:57;;;;;;;3.17;2.87;;;;;;;;;;5005894;28;20234;-65
2022/04/10 11:10:28;;;;;;;3.50;3.20;;;;;;;;;;5003009;28;20199;-64
2022/04/10 11:13:04;;;;;;;3.50;3.10;;;;;;;;;;5009738;28;20229;-64
2022/04/10 11:15:34;;;;;;;3.50;2.80;;;;;;;;;;5000978;28;20207;-66
2022/04/10 11:18:20;;;;;;;6.17;2.80;;;;;;;;;;5001745;28;20225;-65
2022/04/10 11:20:58;;;;;;;5.30;3.93;;;;;;;;;;5009212;28;20410;-65
2022/04/10 11:23:31;;;;;;;15.33;7.60;;;;;;;;;;5002186;28;20648;-66
2022/04/10 11:26:02;;;;;;;3.27;2.60;;;;;;;;;;5000650;28;20215;-66
2022/04/10 11:28:31;;;;;;;2.40;2.20;;;;;;;;;;5005813;28;20972;-65
2022/04/10 11:31:02;;;;;;;2.63;2.20;;;;;;;;;;4998308;28;20255;-64
2022/04/10 11:33:48;;;;;;;3.27;2.47;;;;;;;;;;5016727;28;20236;-66
2022/04/10 11:36:17;;;;;;;3.60;3.20;;;;;;;;;;5002089;28;20221;-64
2022/04/10 11:39:05;;;;;;;3.30;3.00;;;;;;;;;;5004314;28;20210;-66
2022/04/10 11:41:32;;;;;;;4.20;3.80;;;;;;;;;;5001788;28;20225;-65
2022/04/10 11:44:00;;;;;;;3.80;3.50;;;;;;;;;;4999783;28;20227;-65
2022/04/10 11:46:30;;;;;;;4.77;4.10;;;;;;;;;;4994209;28;20226;-65
2022/04/10 11:48:58;;;;;;;3.80;3.50;;;;;;;;;;4995423;28;20778;-65
2022/04/10 11:51:25;;;;;;;5.03;4.07;;;;;;;;;;4998964;28;20221;-66
2022/04/10 11:53:58;;;;;;;4.10;3.77;;;;;;;;;;5006305;28;20226;-64
2022/04/10 11:56:25;;;;;;;3.27;3.00;;;;;;;;;;4998771;28;20221;-65
2022/04/10 11:58:53;;;;;;;3.60;3.30;;;;;;;;;;4997631;28;20219;-65
2022/04/10 12:01:20;;;;;;;3.30;3.00;;;;;;;;;;4991830;28;20206;-65
2022/04/10 12:03:51;;;;;;;5.23;4.73;;;;;;;;;;5004624;28;20236;-65
2022/04/10 12:06:22;;;;;;;4.03;3.13;;;;;;;;;;5000311;28;20290;-67
2022/04/10 12:08:51;;;;;;;3.37;3.10;;;;;;;;;;5009549;28;20262;-65
2022/04/10 12:11:18;;;;;;;3.43;2.70;;;;;;;;;;4998783;28;20215;-65
2022/04/10 12:13:45;;;;;;;3.00;2.43;;;;;;;;;;5004965;28;20890;-65
2022/04/10 12:16:16;;;;;;;2.50;2.30;;;;;;;;;;5001835;28;20450;-65
2022/04/10 12:18:48;;;;;;;2.40;2.20;;;;;;;;;;5007316;28;20307;-67
2022/04/10 12:21:16;;;;;;;2.47;2.27;;;;;;;;;;5001106;28;20218;-66
2022/04/10 12:23:45;;;;;;;3.77;2.60;;;;;;;;;;5028632;28;20231;-67
2022/04/10 12:26:13;;;;;;;3.80;2.80;;;;;;;;;;5001960;28;20225;-64
2022/04/10 12:28:42;;;;;;;2.53;2.33;;;;;;;;;;5013895;28;20214;-65
2022/04/10 12:31:11;;;;;;;3.23;2.23;;;;;;;;;;5014154;28;20215;-67
2022/04/10 12:33:38;;;;;;;3.27;2.53;;;;;;;;;;5028169;28;20497;-67
2022/04/10 12:36:16;;;;;;;3.53;2.47;;;;;;;;;;5002944;28;20211;-66
2022/04/10 12:38:44;;;;;;;3.77;2.50;;;;;;;;;;5011413;28;23189;-64
2022/04/10 12:41:11;;;;;;;2.93;2.20;;;;;;;;;;5012742;28;20215;-66
2022/04/10 12:43:39;;;;;;;2.77;2.43;;;;;;;;;;5017971;28;20233;-67
2022/04/10 12:46:10;;;;;;;2.50;2.30;;;;;;;;;;5013347;28;20561;-67
2022/04/10 12:48:38;;;;;;;2.80;2.33;;;;;;;;;;4996411;28;20281;-65
2022/04/10 12:51:10;;;;;;;3.37;2.87;;;;;;;;;;5024008;28;20266;-68
2022/04/10 12:53:37;;;;;;;3.73;2.50;;;;;;;;;;5002522;28;20219;-67
2022/04/10 12:56:05;;;;;;;3.47;2.70;;;;;;;;;;5003556;28;20654;-65
2022/04/10 12:58:47;;;;;;;5.17;3.50;;;;;;;;;;5003596;28;20207;-65
2022/04/10 13:01:44;;;;;;;5.50;3.83;;;;;;;;;;5002272;28;20242;-66
2022/04/10 13:04:12;;;;;;;2.83;2.63;;;;;;;;;;4987183;28;20231;-66
2022/04/10 13:06:49;;;;;;;2.93;2.63;;;;;;;;;;5009600;28;20219;-65
2022/04/10 13:09:17;;;;;;;3.37;2.30;;;;;;;;;;4999364;28;20691;-65
2022/04/10 13:11:45;;;;;;;4.50;2.27;;;;;;;;;;5001436;28;20230;-65
2022/04/10 13:14:13;;;;;;;2.70;2.23;;;;;;;;;;5012365;28;20219;-65
2022/04/10 13:16:42;;;;;;;2.40;2.20;;;;;;;;;;5002563;28;20293;-65
2022/04/10 13:19:16;;;;;;;3.00;2.10;;;;;;;;;;5003564;28;21128;-65
2022/04/10 13:21:45;;;;;;;3.03;2.20;;;;;;;;;;5010376;28;20229;-67
2022/04/10 13:24:14;;;;;;;2.83;2.57;;;;;;;;;;4997081;28;20790;-64
2022/04/10 13:26:41;;;;;;;6.90;4.77;;;;;;;;;;5006604;28;20203;-65
2022/04/10 13:29:11;;;;;;;6.83;4.13;;;;;;;;;;5008396;28;20290;-66
2022/04/10 13:31:40;;;;;;;10.20;6.73;;;;;;;;;;5023258;28;20214;-65
2022/04/10 13:34:08;;;;;;;2.17;2.07;;;;;;;;;;5006410;28;20278;-65
2022/04/10 13:36:41;;;;;;;8.03;4.70;;;;;;;;;;5002617;28;20681;-66
2022/04/10 13:39:09;;;;;;;12.50;7.57;;;;;;;;;;5002530;28;20214;-64
2022/04/10 13:41:36;;;;;;;3.57;3.00;;;;;;;;;;4999054;28;20211;-65
2022/04/10 13:44:07;;;;;;;7.70;5.67;;;;;;;;;;5006152;28;20736;-65
2022/04/10 13:46:34;;;;;;;2.97;2.23;;;;;;;;;;4999487;28;20389;-65
2022/04/10 13:49:02;;;;;;;3.77;2.77;;;;;;;;;;5004234;28;20291;-66
2022/04/10 13:51:29;;;;;;;6.73;4.50;;;;;;;;;;5000565;28;20253;-66
2022/04/10 13:53:57;;;;;;;4.27;3.83;;;;;;;;;;5015520;28;20322;-65
2022/04/10 13:56:24;;;;;;;4.23;2.80;;;;;;;;;;4996762;28;20890;-64
2022/04/10 13:58:52;;;;;;;4.40;2.40;;;;;;;;;;4998581;28;20207;-66
2022/04/10 14:01:19;;;;;;;3.73;3.43;;;;;;;;;;4997935;28;20218;-65
2022/04/10 14:03:47;;;;;;;3.67;3.07;;;;;;;;;;4997026;28;20305;-66
2022/04/10 14:06:14;;;;;;;3.53;2.70;;;;;;;;;;5000492;28;20683;-65
2022/04/10 14:08:42;;;;;;;6.97;4.67;;;;;;;;;;4998435;28;20242;-66
2022/04/10 14:11:19;;;;;;;6.30;3.87;;;;;;;;;;5005946;28;21574;-66
2022/04/10 14:13:46;;;;;;;2.20;2.00;;;;;;;;;;5003686;28;20375;-66
2022/04/10 14:16:14;;;;;;;1.90;1.80;;;;;;;;;;5004223;28;20207;-66
2022/04/10 14:18:41;;;;;;;3.57;1.60;;;;;;;;;;4998270;28;20207;-65
2022/04/10 14:21:09;;;;;;;2.37;1.80;;;;;;;;;;5004525;28;20214;-64
2022/04/10 14:23:37;;;;;;;1.97;1.70;;;;;;;;;;4995192;28;21884;-66
2022/04/10 14:26:07;;;;;;;2.20;1.60;;;;;;;;;;5002499;28;20222;-65
2022/04/10 14:28:36;;;;;;;2.03;1.83;;;;;;;;;;5003865;28;20266;-66
2022/04/10 14:31:07;;;;;;;2.10;1.80;;;;;;;;;;4998282;28;20207;-66
2022/04/10 14:33:37;;;;;;;1.90;1.80;;;;;;;;;;5002224;28;20608;-66
2022/04/10 14:36:05;;;;;;;2.50;2.30;;;;;;;;;;4999058;28;20378;-66
2022/04/10 14:38:33;;;;;;;11.17;9.23;;;;;;;;;;5014382;28;20265;-66
2022/04/10 14:41:02;;;;;;;3.63;2.57;;;;;;;;;;5001231;28;20218;-65
2022/04/10 14:43:29;;;;;;;2.20;2.00;;;;;;;;;;5002332;28;20231;-67
2022/04/10 14:45:56;;;;;;;2.00;1.80;;;;;;;;;;4988347;28;23826;-64
2022/04/10 14:48:24;;;;;;;2.80;1.73;;;;;;;;;;4989333;28;21379;-68
2022/04/10 14:50:51;;;;;;;2.03;1.47;;;;;;;;;;4998231;28;20250;-69
2022/04/10 14:53:20;;;;;;;2.30;1.70;;;;;;;;;;5000576;28;20236;-68
2022/04/10 14:55:47;;;;;;;1.87;1.60;;;;;;;;;;4990895;28;20207;-67